Terminal Aerodrome Forecast
Issued by NWS

Current Version | Previous Version | Graphics & Text | Print | Product List | Glossary On
Versions: 1 2 3 4 5 6 7 8 9 10 11 12 13 14 15
000
FTUS41 KILN 172300
TAFLCK
TAF
KLCK 172333Z 1800/1824 17006KT P6SM BKN250
     FM180300 13003KT P6SM BKN150
     FM181200 20005KT P6SM BKN050
     FM181500 26008KT P6SM BKN050
     FM182200 30007KT P6SM BKN050=

USA.gov is the U.S. government's official web portal to all federal, state and local government web resources and services.